createdAt,value
2022-07-30T00:00:11.317Z,0.60
2022-07-30T00:01:12.363Z,0.60
2022-07-30T00:02:12.304Z,0.60
2022-07-30T00:03:11.658Z,0.80
2022-07-30T00:04:11.825Z,0.70
2022-07-30T00:05:12.083Z,0.60
2022-07-30T00:06:12.314Z,0.50
2022-07-30T00:07:13.307Z,0.80
2022-07-30T00:08:12.562Z,0.90
2022-07-30T00:09:12.721Z,0.80
2022-07-30T00:10:12.863Z,0.70
2022-07-30T00:11:13.007Z,0.80
2022-07-30T00:12:13.808Z,1.00
2022-07-30T00:13:14.229Z,0.60
2022-07-30T00:14:13.557Z,1.10
2022-07-30T00:15:13.670Z,0.90
2022-07-30T00:16:13.859Z,0.80
2022-07-30T00:17:14.816Z,0.70
2022-07-30T00:18:14.815Z,0.70
2022-07-30T00:19:15.310Z,0.70
2022-07-30T00:20:14.507Z,0.70
2022-07-30T00:21:20.334Z,0.50
2022-07-30T00:22:15.866Z,1.00
2022-07-30T00:23:15.111Z,0.70
2022-07-30T00:24:15.228Z,0.70
2022-07-30T00:25:15.470Z,0.70
2022-07-30T00:26:16.308Z,0.60
2022-07-30T00:27:16.308Z,0.60
2022-07-30T00:28:15.927Z,0.80
2022-07-30T00:29:16.814Z,0.80
2022-07-30T00:30:16.834Z,0.70
2022-07-30T00:31:16.538Z,0.70
2022-07-30T00:32:16.613Z,0.60
2022-07-30T00:33:17.322Z,0.70
2022-07-30T00:34:17.817Z,0.70
2022-07-30T00:35:17.172Z,0.60
2022-07-30T00:36:17.360Z,0.40
2022-07-30T00:37:17.525Z,0.90
2022-07-30T00:38:17.658Z,0.70
2022-07-30T00:39:17.946Z,0.70
2022-07-30T00:40:18.093Z,0.40
2022-07-30T00:41:18.236Z,0.60
2022-07-30T00:42:18.379Z,0.50
2022-07-30T00:43:18.550Z,0.80
2022-07-30T00:44:19.317Z,0.50
2022-07-30T00:45:19.346Z,0.50
2022-07-30T00:46:19.063Z,0.60
2022-07-30T00:47:19.203Z,0.70
2022-07-30T00:48:19.348Z,0.60
2022-07-30T00:49:19.536Z,1.10
2022-07-30T00:50:20.322Z,1.00
2022-07-30T00:51:19.911Z,0.50
2022-07-30T00:52:20.060Z,0.70
2022-07-30T00:53:20.824Z,1.00
2022-07-30T00:54:20.335Z,0.80
2022-07-30T00:55:20.500Z,0.50
2022-07-30T00:56:21.333Z,0.50
2022-07-30T00:57:20.831Z,0.60
2022-07-30T00:58:21.824Z,0.70
2022-07-30T00:59:21.178Z,0.70
2022-07-30T01:00:21.334Z,0.70
2022-07-30T01:01:21.893Z,0.60
2022-07-30T01:02:21.716Z,0.80
2022-07-30T01:03:22.828Z,0.90
2022-07-30T01:04:22.821Z,0.70
2022-07-30T01:05:22.334Z,0.60
2022-07-30T01:06:23.327Z,0.60
2022-07-30T01:07:27.085Z,0.80
2022-07-30T01:08:23.849Z,0.60
2022-07-30T01:09:23.102Z,0.70
2022-07-30T01:10:24.258Z,0.80
2022-07-30T01:11:23.373Z,0.60
2022-07-30T01:12:23.846Z,0.60
2022-07-30T01:13:23.713Z,0.50
2022-07-30T01:14:24.860Z,0.60
2022-07-30T01:15:23.977Z,0.70
2022-07-30T01:16:24.207Z,0.90
2022-07-30T01:17:24.388Z,0.40
2022-07-30T01:18:25.330Z,0.80
2022-07-30T01:19:24.689Z,0.60
2022-07-30T01:20:24.853Z,0.60
2022-07-30T01:21:25.829Z,0.50
2022-07-30T01:22:27.833Z,0.90
2022-07-30T01:23:26.367Z,0.60
2022-07-30T01:24:25.518Z,0.70
2022-07-30T01:25:26.330Z,0.60
2022-07-30T01:26:25.839Z,0.60
2022-07-30T01:27:26.023Z,0.50
2022-07-30T01:28:26.340Z,0.70
2022-07-30T01:29:26.365Z,0.80
2022-07-30T01:30:26.538Z,0.50
2022-07-30T01:31:27.344Z,0.70
2022-07-30T01:32:27.351Z,0.60
2022-07-30T01:33:27.839Z,0.80
2022-07-30T01:34:27.315Z,0.60
2022-07-30T01:35:27.845Z,0.60
2022-07-30T01:36:27.599Z,1.00
2022-07-30T01:37:27.758Z,0.80
2022-07-30T01:38:34.915Z,0.40
2022-07-30T01:39:29.857Z,0.60
2022-07-30T01:40:28.219Z,0.60
2022-07-30T01:41:28.396Z,0.60
2022-07-30T01:42:28.527Z,0.40
2022-07-30T01:43:28.676Z,0.70
2022-07-30T01:44:28.820Z,0.80
2022-07-30T01:45:29.045Z,0.50
2022-07-30T01:46:29.208Z,0.60
2022-07-30T01:47:29.334Z,0.70
2022-07-30T01:48:29.472Z,0.70
2022-07-30T01:49:29.588Z,0.40
2022-07-30T01:50:29.723Z,0.50
2022-07-30T01:51:37.241Z,0.70
2022-07-30T01:52:31.375Z,1.20
2022-07-30T01:53:30.235Z,0.40
2022-07-30T01:54:30.403Z,0.60
2022-07-30T01:55:30.578Z,0.70
2022-07-30T01:56:30.737Z,0.90
2022-07-30T01:57:30.944Z,0.40
2022-07-30T01:58:31.350Z,0.60
2022-07-30T01:59:31.239Z,0.80
2022-07-30T02:00:31.358Z,0.60
2022-07-30T02:01:32.390Z,0.80
2022-07-30T02:02:31.757Z,0.60
2022-07-30T02:03:31.958Z,0.80
2022-07-30T02:04:32.839Z,0.50
2022-07-30T02:05:32.302Z,0.70
2022-07-30T02:06:32.448Z,0.70
2022-07-30T02:07:33.346Z,0.60
2022-07-30T02:08:32.759Z,0.50
2022-07-30T02:09:32.880Z,0.60
2022-07-30T02:10:33.001Z,0.80
2022-07-30T02:11:33.844Z,0.90
2022-07-30T02:12:34.345Z,0.60
2022-07-30T02:13:33.604Z,0.90
2022-07-30T02:14:34.345Z,0.60
2022-07-30T02:15:35.037Z,0.40
2022-07-30T02:16:34.275Z,0.60
2022-07-30T02:17:39.460Z,0.90
2022-07-30T02:18:35.860Z,0.50
2022-07-30T02:19:34.718Z,0.50
2022-07-30T02:20:35.774Z,0.50
2022-07-30T02:21:37.175Z,0.60
2022-07-30T02:22:35.849Z,0.50
2022-07-30T02:23:35.856Z,0.40
2022-07-30T02:24:35.638Z,0.50
2022-07-30T02:25:35.841Z,0.60
2022-07-30T02:26:36.854Z,0.40
2022-07-30T02:27:38.319Z,0.60
2022-07-30T02:28:36.433Z,0.70
2022-07-30T02:29:37.357Z,0.50
2022-07-30T02:30:36.864Z,0.50
2022-07-30T02:31:37.895Z,0.60
2022-07-30T02:32:37.086Z,0.70
2022-07-30T02:33:48.591Z,0.50
2022-07-30T02:34:38.476Z,1.00
2022-07-30T02:35:37.742Z,0.90
2022-07-30T02:36:38.844Z,0.60
2022-07-30T02:37:43.519Z,0.90
2022-07-30T02:38:39.345Z,0.70
2022-07-30T02:39:38.474Z,0.50
2022-07-30T02:40:38.661Z,0.60
2022-07-30T02:41:39.354Z,1.10
2022-07-30T02:42:39.860Z,0.60
2022-07-30T02:43:39.276Z,0.70
2022-07-30T02:44:40.429Z,0.80
2022-07-30T02:45:39.881Z,0.60
2022-07-30T02:46:40.898Z,0.70
2022-07-30T02:47:40.088Z,0.50
2022-07-30T02:48:41.021Z,0.70
2022-07-30T02:49:40.496Z,0.50
2022-07-30T02:50:40.647Z,0.50
2022-07-30T02:51:40.841Z,0.60
2022-07-30T02:52:41.024Z,0.60
2022-07-30T02:53:41.885Z,0.70
2022-07-30T02:54:41.288Z,0.80
2022-07-30T02:55:42.387Z,0.60
2022-07-30T02:56:41.673Z,0.60
2022-07-30T02:57:43.466Z,0.50
2022-07-30T02:58:42.905Z,0.70
2022-07-30T02:59:42.300Z,0.40
2022-07-30T03:00:43.436Z,0.70
2022-07-30T03:01:43.420Z,0.60
2022-07-30T03:02:43.770Z,0.70
2022-07-30T03:03:43.879Z,0.50
2022-07-30T03:04:43.197Z,0.50
2022-07-30T03:05:43.366Z,0.80
2022-07-30T03:06:44.357Z,0.70
2022-07-30T03:07:43.749Z,0.50
2022-07-30T03:08:44.879Z,0.70
2022-07-30T03:09:52.272Z,0.90
2022-07-30T03:10:45.283Z,0.40
2022-07-30T03:11:44.403Z,0.50
2022-07-30T03:12:44.548Z,0.50
2022-07-30T03:13:44.884Z,0.40
2022-07-30T03:14:44.898Z,1.10
2022-07-30T03:15:45.033Z,0.60
2022-07-30T03:16:45.867Z,0.90
2022-07-30T03:17:46.372Z,0.50
2022-07-30T03:18:45.655Z,0.60
2022-07-30T03:19:45.807Z,0.40
2022-07-30T03:20:45.974Z,0.50
2022-07-30T03:21:46.131Z,0.70
2022-07-30T03:22:46.872Z,0.50
2022-07-30T03:23:46.539Z,0.70
2022-07-30T03:24:46.669Z,0.70
2022-07-30T03:25:46.804Z,0.40
2022-07-30T03:26:46.933Z,0.50
2022-07-30T03:27:47.064Z,0.50
2022-07-30T03:28:47.220Z,0.50
2022-07-30T03:29:47.869Z,0.40
2022-07-30T03:30:47.525Z,0.60
2022-07-30T03:31:47.802Z,0.60
2022-07-30T03:32:48.370Z,0.40
2022-07-30T03:33:48.005Z,0.50
2022-07-30T03:34:48.142Z,0.70
2022-07-30T03:35:48.383Z,0.50
2022-07-30T03:36:48.395Z,0.60
2022-07-30T03:37:48.582Z,0.60
2022-07-30T03:38:48.751Z,0.60
2022-07-30T03:39:48.911Z,0.40
2022-07-30T03:40:49.067Z,0.90
2022-07-30T03:41:49.212Z,0.40
2022-07-30T03:42:49.371Z,0.50
2022-07-30T03:43:49.539Z,0.60
2022-07-30T03:44:49.713Z,0.40
2022-07-30T03:45:50.385Z,0.70
2022-07-30T03:46:50.087Z,0.60
2022-07-30T03:47:50.876Z,0.30
2022-07-30T03:48:50.406Z,0.50
2022-07-30T03:49:50.604Z,0.60
2022-07-30T03:50:50.772Z,0.50
2022-07-30T03:51:50.928Z,0.40
2022-07-30T03:52:51.081Z,0.80
2022-07-30T03:53:51.232Z,0.30
2022-07-30T03:54:51.381Z,0.60
2022-07-30T03:55:51.557Z,0.60
2022-07-30T03:56:51.714Z,0.30
2022-07-30T03:57:52.398Z,0.40
2022-07-30T03:58:52.044Z,0.90
2022-07-30T03:59:53.196Z,0.40
2022-07-30T04:00:52.317Z,0.50
2022-07-30T04:01:52.578Z,0.70
2022-07-30T04:02:52.642Z,0.50
2022-07-30T04:03:52.906Z,0.60
2022-07-30T04:04:52.917Z,0.50
2022-07-30T04:05:53.881Z,0.50
2022-07-30T04:06:53.257Z,0.70
2022-07-30T04:07:53.436Z,0.60
2022-07-30T04:08:54.378Z,0.50
2022-07-30T04:09:53.745Z,0.50
2022-07-30T04:10:53.914Z,0.80
2022-07-30T04:11:54.881Z,0.40
2022-07-30T04:12:54.273Z,0.70
2022-07-30T04:13:54.426Z,0.70
2022-07-30T04:14:54.611Z,0.50
2022-07-30T04:16:40.301Z,0.60
2022-07-30T04:16:55.925Z,0.60
2022-07-30T04:17:55.210Z,0.50
2022-07-30T04:18:55.904Z,0.60
2022-07-30T04:19:56.413Z,0.70
2022-07-30T04:20:56.427Z,0.70
2022-07-30T04:21:56.884Z,0.60
2022-07-30T04:22:56.108Z,0.60
2022-07-30T04:24:02.106Z,0.60
2022-07-30T04:24:57.482Z,0.60
2022-07-30T04:25:56.718Z,0.70
2022-07-30T04:26:56.856Z,0.80
2022-07-30T04:28:02.902Z,1.20
2022-07-30T04:28:58.916Z,0.40
2022-07-30T04:29:57.404Z,0.50
2022-07-30T04:30:57.674Z,0.50
2022-07-30T04:31:57.904Z,0.40
2022-07-30T04:32:58.890Z,0.50
2022-07-30T04:34:02.965Z,0.70
2022-07-30T04:34:59.346Z,0.60
2022-07-30T04:35:59.388Z,0.40
2022-07-30T04:36:59.263Z,0.40
2022-07-30T04:37:58.892Z,0.70
2022-07-30T04:38:59.039Z,0.70
2022-07-30T04:39:59.178Z,0.60
2022-07-30T04:40:59.330Z,0.60
2022-07-30T04:41:59.932Z,0.50
2022-07-30T04:42:59.682Z,0.70
2022-07-30T04:43:59.810Z,0.80
2022-07-30T04:44:59.961Z,0.80
2022-07-30T04:46:00.145Z,0.40
2022-07-30T04:47:00.613Z,0.60
2022-07-30T04:48:00.324Z,0.50
2022-07-30T04:49:00.583Z,0.50
2022-07-30T04:50:00.906Z,0.70
2022-07-30T04:51:00.897Z,0.40
2022-07-30T04:52:01.892Z,0.50
2022-07-30T04:53:01.252Z,0.70
2022-07-30T04:54:01.902Z,0.50
2022-07-30T04:55:01.556Z,0.50
2022-07-30T04:56:01.726Z,0.60
2022-07-30T04:57:02.350Z,0.40
2022-07-30T04:58:02.894Z,0.40
2022-07-30T04:59:03.165Z,0.70
2022-07-30T05:00:02.298Z,0.40
2022-07-30T05:01:02.908Z,0.50
2022-07-30T05:02:03.485Z,0.70
2022-07-30T05:03:02.927Z,0.50
2022-07-30T05:04:03.411Z,0.50
2022-07-30T05:05:03.353Z,0.70
2022-07-30T05:06:04.461Z,0.60
2022-07-30T05:07:04.171Z,0.60
2022-07-30T05:08:03.779Z,1.00
2022-07-30T05:09:04.019Z,0.60
2022-07-30T05:10:04.182Z,0.60
2022-07-30T05:11:04.345Z,0.70
2022-07-30T05:12:05.401Z,0.50
2022-07-30T05:13:04.682Z,0.50
2022-07-30T05:14:04.911Z,0.70
2022-07-30T05:15:05.067Z,0.60
2022-07-30T05:16:05.298Z,0.60
2022-07-30T05:17:06.401Z,0.60
2022-07-30T05:18:05.668Z,0.50
2022-07-30T05:19:07.723Z,0.60
2022-07-30T05:20:05.993Z,0.70
2022-07-30T05:21:06.906Z,0.40
2022-07-30T05:22:06.918Z,0.60
2022-07-30T05:23:07.478Z,0.70
2022-07-30T05:24:06.917Z,0.40
2022-07-30T05:25:08.404Z,0.70
2022-07-30T05:26:08.912Z,0.70
2022-07-30T05:27:07.248Z,0.70
2022-07-30T05:28:07.390Z,0.40
2022-07-30T05:29:08.194Z,0.70
2022-07-30T05:30:07.687Z,0.80
2022-07-30T05:31:08.606Z,0.70
2022-07-30T05:32:08.027Z,0.80
2022-07-30T05:33:15.657Z,0.70
2022-07-30T05:34:09.428Z,0.80
2022-07-30T05:35:09.405Z,0.60
2022-07-30T05:36:08.776Z,0.80
2022-07-30T05:37:10.051Z,0.70
2022-07-30T05:38:09.423Z,0.70
2022-07-30T05:39:09.431Z,0.90
2022-07-30T05:40:09.442Z,0.80
2022-07-30T05:41:30.659Z,0.80
2022-07-30T05:42:12.097Z,0.90
2022-07-30T05:43:09.831Z,0.70
2022-07-30T05:44:10.003Z,1.30
2022-07-30T05:45:10.909Z,0.80
2022-07-30T05:46:10.962Z,0.90
2022-07-30T05:47:11.409Z,1.30
2022-07-30T05:48:11.444Z,1.00
2022-07-30T05:49:10.864Z,0.80
2022-07-30T05:50:10.930Z,1.00
2022-07-30T05:51:11.916Z,0.90
2022-07-30T05:52:11.298Z,0.50
2022-07-30T05:53:11.463Z,0.90
2022-07-30T05:54:11.648Z,1.00
2022-07-30T05:55:11.804Z,0.80
2022-07-30T05:56:11.996Z,0.80
2022-07-30T05:57:12.914Z,1.00
2022-07-30T05:58:12.915Z,0.80
2022-07-30T05:59:12.455Z,0.80
2022-07-30T06:00:12.635Z,0.90
2022-07-30T06:01:12.867Z,0.80
2022-07-30T06:02:12.974Z,0.70
2022-07-30T06:03:13.130Z,0.80
2022-07-30T06:04:13.977Z,1.00
2022-07-30T06:05:13.519Z,0.80
2022-07-30T06:06:13.685Z,0.60
2022-07-30T06:07:13.834Z,0.80
2022-07-30T06:08:14.433Z,1.00
2022-07-30T06:09:14.170Z,1.30
2022-07-30T06:10:14.309Z,0.80
2022-07-30T06:11:14.450Z,0.80
2022-07-30T06:12:14.597Z,0.90
2022-07-30T06:13:14.944Z,1.60
2022-07-30T06:14:15.060Z,1.00
2022-07-30T06:15:18.572Z,1.00
2022-07-30T06:16:15.475Z,1.20
2022-07-30T06:17:16.426Z,0.60
2022-07-30T06:18:15.652Z,0.70
2022-07-30T06:19:19.404Z,1.30
2022-07-30T06:20:17.922Z,1.10
2022-07-30T06:21:16.253Z,0.90
2022-07-30T06:22:16.921Z,1.00
2022-07-30T06:23:16.505Z,0.90
2022-07-30T06:24:17.437Z,0.60
2022-07-30T06:25:18.554Z,0.60
2022-07-30T06:26:17.144Z,0.70
2022-07-30T06:27:17.263Z,0.80
2022-07-30T06:28:36.597Z,1.30
2022-07-30T06:29:19.611Z,0.80
2022-07-30T06:30:18.426Z,0.90
2022-07-30T06:31:18.954Z,1.30
2022-07-30T06:32:18.247Z,1.10
2022-07-30T06:33:18.391Z,0.90
2022-07-30T06:34:18.542Z,0.80
2022-07-30T06:35:19.428Z,1.20
2022-07-30T06:36:18.927Z,0.80
2022-07-30T06:37:19.929Z,0.70
2022-07-30T06:38:19.181Z,0.80
2022-07-30T06:39:58.032Z,1.00
2022-07-30T06:40:20.442Z,0.90
2022-07-30T06:41:19.566Z,0.90
2022-07-30T06:42:19.718Z,0.80
2022-07-30T06:43:19.882Z,1.40
2022-07-30T06:44:20.080Z,1.00
2022-07-30T06:45:20.441Z,1.10
2022-07-30T06:46:20.433Z,0.80
2022-07-30T06:47:20.511Z,1.10
2022-07-30T06:48:20.701Z,0.90
2022-07-30T06:49:20.954Z,0.90
2022-07-30T06:50:21.066Z,0.90
2022-07-30T06:51:21.444Z,1.60
2022-07-30T06:52:21.956Z,0.70
2022-07-30T06:53:22.436Z,0.80
2022-07-30T06:54:21.704Z,1.00
2022-07-30T06:55:21.946Z,1.10
2022-07-30T06:56:22.175Z,0.90
2022-07-30T06:57:22.936Z,1.10
2022-07-30T06:58:25.306Z,0.80
2022-07-30T06:59:23.462Z,1.00
2022-07-30T07:00:23.431Z,1.10
2022-07-30T07:01:23.984Z,0.90
2022-07-30T07:02:23.587Z,1.50
2022-07-30T07:03:23.491Z,0.90
2022-07-30T07:04:23.678Z,0.80
2022-07-30T07:05:24.435Z,0.90
2022-07-30T07:06:24.068Z,1.30
2022-07-30T07:07:40.667Z,0.90
2022-07-30T07:08:26.445Z,1.00
2022-07-30T07:09:24.669Z,0.80
2022-07-30T07:10:24.934Z,0.80
2022-07-30T07:11:25.015Z,1.00
2022-07-30T07:12:25.938Z,0.80
2022-07-30T07:13:25.940Z,1.30
2022-07-30T07:14:25.457Z,0.90
2022-07-30T07:15:36.233Z,0.90
2022-07-30T07:16:26.798Z,1.20
2022-07-30T07:17:25.936Z,0.90
2022-07-30T07:18:26.131Z,1.10
2022-07-30T07:20:00.496Z,1.00
2022-07-30T07:20:28.440Z,1.10
2022-07-30T07:21:26.656Z,0.90
2022-07-30T07:22:26.811Z,1.10
2022-07-30T07:23:38.993Z,1.10
2022-07-30T07:24:28.066Z,1.00
2022-07-30T07:25:27.200Z,1.00
2022-07-30T07:26:27.366Z,1.00
2022-07-30T07:27:27.535Z,1.00
2022-07-30T07:28:33.283Z,1.20
2022-07-30T07:29:28.834Z,1.00
2022-07-30T07:30:27.983Z,1.30
2022-07-30T07:32:06.961Z,1.20
2022-07-30T07:32:29.969Z,1.20
2022-07-30T07:33:28.956Z,1.10
2022-07-30T07:34:28.575Z,1.00
2022-07-30T07:35:29.452Z,1.20
2022-07-30T07:36:29.487Z,1.10
2022-07-30T07:37:29.156Z,1.50
2022-07-30T07:38:29.303Z,1.10
2022-07-30T07:39:29.470Z,1.00
2022-07-30T07:40:30.448Z,1.00
2022-07-30T07:41:29.964Z,1.10
2022-07-30T07:42:31.476Z,1.10
2022-07-30T07:43:30.959Z,1.20
2022-07-30T07:44:30.960Z,1.00
2022-07-30T07:45:30.343Z,0.90
2022-07-30T07:46:33.749Z,0.90
2022-07-30T07:47:31.453Z,0.70
2022-07-30T07:48:30.852Z,1.10
2022-07-30T07:49:30.998Z,1.30
2022-07-30T07:50:31.971Z,1.20
2022-07-30T07:51:47.065Z,0.90
2022-07-30T07:52:32.589Z,0.90
2022-07-30T07:53:33.454Z,1.30
2022-07-30T07:54:32.954Z,1.20
2022-07-30T07:55:33.036Z,1.00
2022-07-30T07:56:32.459Z,1.20
2022-07-30T07:57:32.606Z,0.90
2022-07-30T07:58:33.464Z,1.00
2022-07-30T07:59:40.286Z,1.00
2022-07-30T08:00:34.129Z,1.30
2022-07-30T08:01:33.282Z,1.10
2022-07-30T08:02:33.511Z,1.00
2022-07-30T08:03:33.656Z,0.90
2022-07-30T08:04:34.458Z,1.10
2022-07-30T08:05:55.824Z,1.00
2022-07-30T08:06:35.964Z,1.00
2022-07-30T08:07:34.169Z,1.10
2022-07-30T08:08:34.339Z,1.20
2022-07-30T08:09:43.722Z,0.90
2022-07-30T08:10:35.682Z,0.90
2022-07-30T08:11:34.911Z,1.20
2022-07-30T08:12:35.054Z,1.20
2022-07-30T08:13:51.681Z,1.30
2022-07-30T08:14:36.417Z,1.20
2022-07-30T08:15:35.675Z,1.00
2022-07-30T08:16:35.854Z,1.30
2022-07-30T08:17:36.016Z,1.20
2022-07-30T08:18:36.961Z,1.50
2022-07-30T08:19:36.309Z,1.30
2022-07-30T08:20:36.475Z,1.10
2022-07-30T08:21:36.623Z,1.40
2022-07-30T08:22:36.775Z,1.40
2022-07-30T08:23:39.753Z,1.40
2022-07-30T08:24:39.161Z,1.30
2022-07-30T08:25:37.396Z,1.10
2022-07-30T08:26:37.997Z,0.90
2022-07-30T08:27:37.757Z,1.00
2022-07-30T08:28:38.475Z,1.10
2022-07-30T08:29:38.087Z,1.40
2022-07-30T08:30:38.975Z,1.20
2022-07-30T08:31:38.367Z,1.10
2022-07-30T08:32:38.513Z,1.30
2022-07-30T08:33:38.654Z,1.20
2022-07-30T08:34:39.473Z,1.50
2022-07-30T08:35:38.979Z,1.20
2022-07-30T08:36:40.203Z,1.00
2022-07-30T08:37:39.471Z,1.60
2022-07-30T08:38:40.455Z,1.50
2022-07-30T08:39:40.861Z,1.30
2022-07-30T08:40:40.097Z,1.20
2022-07-30T08:41:40.245Z,1.20
2022-07-30T08:42:40.424Z,1.30
2022-07-30T08:43:40.600Z,1.30
2022-07-30T08:44:40.755Z,1.40
2022-07-30T08:45:41.497Z,1.10
2022-07-30T08:46:41.198Z,1.50
2022-07-30T08:47:42.979Z,1.50
2022-07-30T08:48:42.521Z,1.50
2022-07-30T08:49:41.719Z,1.60
2022-07-30T08:50:41.869Z,1.00
2022-07-30T08:51:42.058Z,1.00
2022-07-30T08:52:42.216Z,1.50
2022-07-30T08:53:42.975Z,1.60
2022-07-30T08:54:42.487Z,1.50
2022-07-30T08:55:42.989Z,1.30
2022-07-30T08:56:42.885Z,1.10
2022-07-30T08:57:43.024Z,1.20
2022-07-30T08:58:43.991Z,1.50
2022-07-30T08:59:52.928Z,1.10
2022-07-30T09:00:44.584Z,1.40
2022-07-30T09:01:43.651Z,1.10
2022-07-30T09:02:43.785Z,1.70
2022-07-30T09:03:44.517Z,1.40
2022-07-30T09:04:44.170Z,1.30
2022-07-30T09:05:44.355Z,1.30
2022-07-30T09:06:44.549Z,1.30
2022-07-30T09:07:44.689Z,1.50
2022-07-30T09:08:44.877Z,1.60
2022-07-30T09:09:45.044Z,1.10
2022-07-30T09:10:52.996Z,1.40
2022-07-30T09:11:46.381Z,1.50
2022-07-30T09:12:45.512Z,1.40
2022-07-30T09:13:45.689Z,1.40
2022-07-30T09:14:46.484Z,1.10
2022-07-30T09:15:46.024Z,1.40
2022-07-30T09:16:46.204Z,1.40
2022-07-30T09:17:46.408Z,1.30
2022-07-30T09:18:46.583Z,1.30
2022-07-30T09:19:46.747Z,1.50
2022-07-30T09:20:46.939Z,1.40
2022-07-30T09:21:47.982Z,1.20
2022-07-30T09:22:47.498Z,1.30
2022-07-30T09:23:51.115Z,1.20
2022-07-30T09:24:48.587Z,1.20
2022-07-30T09:25:47.877Z,1.10
2022-07-30T09:26:47.930Z,1.90
2022-07-30T09:27:48.127Z,1.40
2022-07-30T09:28:48.327Z,1.40
2022-07-30T09:29:48.516Z,1.30
2022-07-30T09:30:48.696Z,1.70
2022-07-30T09:31:48.872Z,1.50
2022-07-30T09:32:50.032Z,1.30
2022-07-30T09:33:49.323Z,1.10
2022-07-30T09:34:49.554Z,1.40
2022-07-30T09:35:49.717Z,1.30
2022-07-30T09:36:50.036Z,1.60
2022-07-30T09:37:51.006Z,1.40
2022-07-30T09:38:50.275Z,1.50
2022-07-30T09:39:59.343Z,1.20
2022-07-30T09:40:51.619Z,1.30
2022-07-30T09:41:51.782Z,1.40
2022-07-30T09:42:51.494Z,1.70
2022-07-30T09:43:51.155Z,1.20
2022-07-30T09:44:51.342Z,1.30
2022-07-30T09:45:57.166Z,1.70
2022-07-30T09:46:52.769Z,1.30
2022-07-30T09:47:52.494Z,1.90
2022-07-30T09:48:53.077Z,1.20
2022-07-30T09:49:52.258Z,1.70
2022-07-30T09:50:53.001Z,1.50
2022-07-30T09:51:55.583Z,1.10
2022-07-30T09:52:53.500Z,2.00
2022-07-30T09:53:53.011Z,1.20
2022-07-30T09:54:54.185Z,1.70
2022-07-30T09:55:53.383Z,1.00
2022-07-30T09:56:54.175Z,1.60
2022-07-30T09:57:56.568Z,1.40
2022-07-30T09:58:55.501Z,1.50
2022-07-30T09:59:54.100Z,1.30
2022-07-30T10:02:00.833Z,1.50
2022-07-30T10:02:56.503Z,1.10
2022-07-30T10:03:55.014Z,1.10
2022-07-30T10:04:54.959Z,1.30
2022-07-30T10:05:55.091Z,1.40
2022-07-30T10:06:55.264Z,1.50
2022-07-30T10:07:55.381Z,1.10
2022-07-30T10:08:55.552Z,1.30
2022-07-30T10:09:56.506Z,1.50
2022-07-30T10:10:56.505Z,1.40
2022-07-30T10:11:56.011Z,1.30
2022-07-30T10:12:56.150Z,1.80
2022-07-30T10:13:56.322Z,1.40
2022-07-30T10:14:56.454Z,1.60
2022-07-30T10:15:56.596Z,1.20
2022-07-30T10:16:56.713Z,1.30
2022-07-30T10:17:56.846Z,1.40
2022-07-30T10:18:57.032Z,1.70
2022-07-30T10:19:58.009Z,1.40
2022-07-30T10:20:58.521Z,1.70
2022-07-30T10:21:57.484Z,1.20
2022-07-30T10:22:57.604Z,1.40
2022-07-30T10:23:57.846Z,1.70
2022-07-30T10:24:58.506Z,1.40
2022-07-30T10:25:58.526Z,1.40
2022-07-30T10:26:58.319Z,1.50
2022-07-30T10:27:58.485Z,1.40
2022-07-30T10:28:58.600Z,1.70
2022-07-30T10:29:58.716Z,1.40
2022-07-30T10:30:59.903Z,1.70
2022-07-30T10:31:59.111Z,1.70
2022-07-30T10:33:01.424Z,1.20
2022-07-30T10:34:00.509Z,1.50
2022-07-30T10:34:59.731Z,1.50
2022-07-30T10:36:00.033Z,1.50
2022-07-30T10:37:01.755Z,1.60
2022-07-30T10:38:00.426Z,1.70
2022-07-30T10:39:00.657Z,1.40
2022-07-30T10:40:00.824Z,1.80
2022-07-30T10:41:01.090Z,1.40
2022-07-30T10:42:01.181Z,1.90
2022-07-30T10:43:01.408Z,1.50
2022-07-30T10:44:01.548Z,1.50
2022-07-30T10:45:01.775Z,1.50
2022-07-30T10:46:02.747Z,2.10
2022-07-30T10:47:07.346Z,1.90
2022-07-30T10:48:03.316Z,1.90
2022-07-30T10:49:02.587Z,1.60
2022-07-30T10:50:02.732Z,1.60
2022-07-30T10:51:02.907Z,1.90
2022-07-30T10:52:03.126Z,1.60
2022-07-30T10:53:03.280Z,1.60
2022-07-30T10:54:03.440Z,1.80
2022-07-30T10:55:03.577Z,1.50
2022-07-30T10:56:04.031Z,2.00
2022-07-30T10:57:04.222Z,1.30
2022-07-30T10:58:04.086Z,1.50
2022-07-30T10:59:04.206Z,1.80
2022-07-30T11:00:04.509Z,1.50
2022-07-30T11:01:04.594Z,1.70
2022-07-30T11:02:07.145Z,2.10
2022-07-30T11:03:07.138Z,1.80
2022-07-30T11:04:06.518Z,1.70
2022-07-30T11:05:07.026Z,1.80
2022-07-30T11:06:05.422Z,1.70
2022-07-30T11:07:05.604Z,1.70
2022-07-30T11:08:05.774Z,1.40
2022-07-30T11:09:06.982Z,2.70
2022-07-30T11:10:09.658Z,1.70
2022-07-30T11:11:19.499Z,1.70
2022-07-30T11:12:07.473Z,1.50
2022-07-30T11:13:07.531Z,1.80
2022-07-30T11:14:06.810Z,1.70
2022-07-30T11:15:18.655Z,1.70
2022-07-30T11:16:08.093Z,1.70
2022-07-30T11:17:07.228Z,1.90
2022-07-30T11:18:13.156Z,1.80
2022-07-30T11:20:13.883Z,1.80
2022-07-30T11:21:07.863Z,1.70
2022-07-30T11:22:09.543Z,1.80
2022-07-30T11:23:08.376Z,2.10
2022-07-30T11:24:09.501Z,2.30
2022-07-30T11:25:13.060Z,1.80
2022-07-30T11:26:14.450Z,2.10
2022-07-30T11:27:10.152Z,1.60
2022-07-30T11:28:10.034Z,1.90
2022-07-30T11:29:09.563Z,1.90
2022-07-30T11:30:10.535Z,2.00
2022-07-30T11:31:10.356Z,1.90
2022-07-30T11:32:10.476Z,2.40
2022-07-30T11:33:10.661Z,1.70
2022-07-30T11:34:10.546Z,1.80
2022-07-30T11:35:11.539Z,1.50
2022-07-30T11:36:11.990Z,1.80
2022-07-30T11:37:19.009Z,1.70
2022-07-30T11:38:13.049Z,1.60
2022-07-30T11:39:11.551Z,1.40
2022-07-30T11:40:12.543Z,1.50
2022-07-30T11:41:12.542Z,1.90
2022-07-30T11:42:11.919Z,1.50
2022-07-30T11:43:13.042Z,1.70
2022-07-30T11:44:12.334Z,1.80
2022-07-30T11:45:12.478Z,1.60
2022-07-30T11:46:16.330Z,1.90
2022-07-30T11:47:12.839Z,1.50
2022-07-30T11:48:12.984Z,1.80
2022-07-30T11:49:13.169Z,1.50
2022-07-30T11:50:13.556Z,2.00
2022-07-30T11:51:14.054Z,1.80
2022-07-30T11:52:14.544Z,1.60
2022-07-30T11:53:14.541Z,1.50
2022-07-30T11:54:14.174Z,1.60
2022-07-30T11:55:14.305Z,1.60
2022-07-30T11:56:14.845Z,1.60
2022-07-30T11:57:15.545Z,1.90
2022-07-30T11:58:15.549Z,1.70
2022-07-30T11:59:14.920Z,1.50
2022-07-30T12:00:15.580Z,1.70
2022-07-30T12:01:16.048Z,1.70
2022-07-30T12:02:15.403Z,1.40
2022-07-30T12:03:16.093Z,1.40
2022-07-30T12:04:15.747Z,1.70
2022-07-30T12:05:16.554Z,1.70
2022-07-30T12:06:16.559Z,1.40
2022-07-30T12:07:16.179Z,1.60
2022-07-30T12:08:35.175Z,1.60
2022-07-30T12:09:18.050Z,1.70
2022-07-30T12:10:17.552Z,1.70
2022-07-30T12:11:17.913Z,1.70
2022-07-30T12:12:17.550Z,2.00
2022-07-30T12:13:17.189Z,1.60
2022-07-30T12:14:17.275Z,1.40
2022-07-30T12:15:17.409Z,1.50
2022-07-30T12:16:17.942Z,1.90
2022-07-30T12:17:18.560Z,1.50
2022-07-30T12:18:26.273Z,1.60
2022-07-30T12:19:20.138Z,2.10
2022-07-30T12:20:19.061Z,1.70
2022-07-30T12:21:19.056Z,1.70
2022-07-30T12:22:18.800Z,1.60
2022-07-30T12:23:21.834Z,1.60
2022-07-30T12:24:19.128Z,1.60
2022-07-30T12:25:19.355Z,1.70
2022-07-30T12:26:20.056Z,1.60
2022-07-30T12:27:19.616Z,1.60
2022-07-30T12:28:19.870Z,1.70
2022-07-30T12:29:20.077Z,1.60
2022-07-30T12:30:20.320Z,1.50
2022-07-30T12:31:20.553Z,1.50
2022-07-30T12:32:21.566Z,2.10
2022-07-30T12:33:21.590Z,1.30
2022-07-30T12:34:21.075Z,1.80
2022-07-30T12:35:21.206Z,1.60
2022-07-30T12:36:22.063Z,1.70
2022-07-30T12:37:21.518Z,1.50
2022-07-30T12:38:21.677Z,1.70
2022-07-30T12:39:22.589Z,1.60
2022-07-30T12:40:21.925Z,1.80
2022-07-30T12:41:22.050Z,1.70
2022-07-30T12:42:22.190Z,1.90
2022-07-30T12:43:22.359Z,1.70
2022-07-30T12:44:23.064Z,2.10
2022-07-30T12:45:23.567Z,1.60
2022-07-30T12:46:22.898Z,2.00
2022-07-30T12:47:23.568Z,1.80
2022-07-30T12:48:23.307Z,1.30
2022-07-30T12:49:23.554Z,2.10
2022-07-30T12:50:24.640Z,1.60
2022-07-30T12:51:23.860Z,2.20
2022-07-30T12:52:28.518Z,1.90
2022-07-30T12:53:25.139Z,1.70
2022-07-30T12:54:24.235Z,1.80
2022-07-30T12:55:25.066Z,1.60
2022-07-30T12:56:25.068Z,2.10
2022-07-30T12:57:24.681Z,1.90
2022-07-30T12:58:24.828Z,2.00
2022-07-30T12:59:25.053Z,1.80
2022-07-30T13:00:26.074Z,1.70
2022-07-30T13:01:25.307Z,2.20
2022-07-30T13:02:26.084Z,2.00
2022-07-30T13:03:25.713Z,1.50
2022-07-30T13:04:25.808Z,1.80
2022-07-30T13:05:27.571Z,1.40
2022-07-30T13:06:27.072Z,1.80
2022-07-30T13:07:26.311Z,1.50
2022-07-30T13:08:26.589Z,1.50
2022-07-30T13:09:26.628Z,1.60
2022-07-30T13:10:30.702Z,1.80
2022-07-30T13:11:27.909Z,1.50
2022-07-30T13:12:28.059Z,1.50
2022-07-30T13:13:27.284Z,1.50
2022-07-30T13:14:27.454Z,1.50
2022-07-30T13:15:27.549Z,1.50
2022-07-30T13:16:27.665Z,1.50
2022-07-30T13:17:28.579Z,1.70
2022-07-30T13:18:28.580Z,1.40
2022-07-30T13:19:28.194Z,1.60
2022-07-30T13:20:28.593Z,1.60
2022-07-30T13:21:29.089Z,1.60
2022-07-30T13:22:29.594Z,1.70